sensor_id;sensor_type;location;lat;lon;timestamp;P1;durP1;ratioP1;P2;durP2;ratioP2
1446;SDS011;717;51.522;7.266;2024-02-21T00:02:22;12.80;;;7.82;;
1446;SDS011;717;51.522;7.266;2024-02-21T00:04:52;15.45;;;7.18;;
1446;SDS011;717;51.522;7.266;2024-02-21T00:07:23;17.75;;;9.23;;
1446;SDS011;717;51.522;7.266;2024-02-21T00:09:56;16.70;;;7.53;;
1446;SDS011;717;51.522;7.266;2024-02-21T00:12:27;14.70;;;8.85;;
1446;SDS011;717;51.522;7.266;2024-02-21T00:14:57;17.70;;;8.98;;
1446;SDS011;717;51.522;7.266;2024-02-21T00:17:27;15.18;;;8.55;;
1446;SDS011;717;51.522;7.266;2024-02-21T00:19:57;12.05;;;6.63;;
1446;SDS011;717;51.522;7.266;2024-02-21T00:22:27;15.43;;;8.07;;
1446;SDS011;717;51.522;7.266;2024-02-21T00:25:03;16.73;;;10.05;;
1446;SDS011;717;51.522;7.266;2024-02-21T00:27:33;16.90;;;9.10;;
1446;SDS011;717;51.522;7.266;2024-02-21T00:30:04;17.38;;;8.40;;
1446;SDS011;717;51.522;7.266;2024-02-21T00:32:35;15.98;;;9.50;;
1446;SDS011;717;51.522;7.266;2024-02-21T00:35:05;14.40;;;8.43;;
1446;SDS011;717;51.522;7.266;2024-02-21T00:37:35;15.40;;;8.95;;
1446;SDS011;717;51.522;7.266;2024-02-21T00:40:08;17.52;;;8.23;;
1446;SDS011;717;51.522;7.266;2024-02-21T00:42:39;14.32;;;8.80;;
1446;SDS011;717;51.522;7.266;2024-02-21T00:45:09;16.50;;;9.35;;
1446;SDS011;717;51.522;7.266;2024-02-21T00:47:40;13.30;;;8.45;;
1446;SDS011;717;51.522;7.266;2024-02-21T00:50:10;16.77;;;8.15;;
1446;SDS011;717;51.522;7.266;2024-02-21T00:52:40;13.95;;;7.95;;
1446;SDS011;717;51.522;7.266;2024-02-21T00:55:13;13.00;;;9.13;;
1446;SDS011;717;51.522;7.266;2024-02-21T00:57:44;13.68;;;8.43;;
1446;SDS011;717;51.522;7.266;2024-02-21T01:00:14;15.50;;;8.88;;
1446;SDS011;717;51.522;7.266;2024-02-21T01:02:45;15.63;;;8.48;;
1446;SDS011;717;51.522;7.266;2024-02-21T01:05:19;18.20;;;9.25;;
1446;SDS011;717;51.522;7.266;2024-02-21T01:07:49;15.02;;;8.40;;
1446;SDS011;717;51.522;7.266;2024-02-21T01:10:22;13.23;;;8.68;;
1446;SDS011;717;51.522;7.266;2024-02-21T01:12:53;19.30;;;9.02;;
1446;SDS011;717;51.522;7.266;2024-02-21T01:15:23;15.82;;;8.40;;
1446;SDS011;717;51.522;7.266;2024-02-21T01:17:53;16.75;;;8.63;;
1446;SDS011;717;51.522;7.266;2024-02-21T01:20:24;17.10;;;8.70;;
1446;SDS011;717;51.522;7.266;2024-02-21T01:22:54;17.88;;;9.68;;
1446;SDS011;717;51.522;7.266;2024-02-21T01:25:27;15.95;;;9.32;;
1446;SDS011;717;51.522;7.266;2024-02-21T01:27:57;18.42;;;10.23;;
1446;SDS011;717;51.522;7.266;2024-02-21T01:30:27;16.95;;;9.25;;
1446;SDS011;717;51.522;7.266;2024-02-21T01:32:58;15.63;;;8.90;;
1446;SDS011;717;51.522;7.266;2024-02-21T01:35:28;16.92;;;8.55;;
1446;SDS011;717;51.522;7.266;2024-02-21T01:37:58;15.30;;;8.38;;
1446;SDS011;717;51.522;7.266;2024-02-21T01:40:31;15.85;;;9.13;;
1446;SDS011;717;51.522;7.266;2024-02-21T01:43:01;19.05;;;8.68;;
1446;SDS011;717;51.522;7.266;2024-02-21T01:45:32;17.30;;;8.38;;
1446;SDS011;717;51.522;7.266;2024-02-21T01:48:02;15.98;;;7.72;;
1446;SDS011;717;51.522;7.266;2024-02-21T01:50:33;15.18;;;8.88;;
1446;SDS011;717;51.522;7.266;2024-02-21T01:53:03;16.13;;;8.80;;
1446;SDS011;717;51.522;7.266;2024-02-21T01:55:37;15.80;;;7.55;;
1446;SDS011;717;51.522;7.266;2024-02-21T01:58:10;14.23;;;7.65;;
1446;SDS011;717;51.522;7.266;2024-02-21T02:00:40;14.63;;;8.02;;
1446;SDS011;717;51.522;7.266;2024-02-21T02:03:13;14.20;;;7.30;;
1446;SDS011;717;51.522;7.266;2024-02-21T02:05:44;14.40;;;8.30;;
1446;SDS011;717;51.522;7.266;2024-02-21T02:08:15;13.50;;;6.88;;
1446;SDS011;717;51.522;7.266;2024-02-21T02:10:49;16.33;;;8.20;;
1446;SDS011;717;51.522;7.266;2024-02-21T02:13:19;15.48;;;8.48;;
1446;SDS011;717;51.522;7.266;2024-02-21T02:15:50;12.75;;;8.05;;
1446;SDS011;717;51.522;7.266;2024-02-21T02:18:21;14.25;;;7.70;;
1446;SDS011;717;51.522;7.266;2024-02-21T02:20:51;13.55;;;7.95;;
1446;SDS011;717;51.522;7.266;2024-02-21T02:23:25;14.38;;;7.70;;
1446;SDS011;717;51.522;7.266;2024-02-21T02:25:56;13.73;;;7.40;;
1446;SDS011;717;51.522;7.266;2024-02-21T02:28:27;12.25;;;7.35;;
1446;SDS011;717;51.522;7.266;2024-02-21T02:30:58;12.45;;;6.93;;
1446;SDS011;717;51.522;7.266;2024-02-21T02:33:28;13.93;;;6.90;;
1446;SDS011;717;51.522;7.266;2024-02-21T02:35:58;15.07;;;7.38;;
1446;SDS011;717;51.522;7.266;2024-02-21T02:38:31;15.85;;;8.50;;
1446;SDS011;717;51.522;7.266;2024-02-21T02:41:01;17.08;;;8.82;;
1446;SDS011;717;51.522;7.266;2024-02-21T02:43:31;17.52;;;7.80;;
1446;SDS011;717;51.522;7.266;2024-02-21T02:46:03;14.88;;;7.80;;
1446;SDS011;717;51.522;7.266;2024-02-21T02:48:33;13.70;;;8.07;;
1446;SDS011;717;51.522;7.266;2024-02-21T02:51:05;10.75;;;7.47;;
1446;SDS011;717;51.522;7.266;2024-02-21T02:53:38;14.10;;;8.23;;
1446;SDS011;717;51.522;7.266;2024-02-21T02:56:13;13.57;;;7.80;;
1446;SDS011;717;51.522;7.266;2024-02-21T02:58:44;14.93;;;8.40;;
1446;SDS011;717;51.522;7.266;2024-02-21T03:01:14;16.45;;;8.07;;
1446;SDS011;717;51.522;7.266;2024-02-21T03:03:44;12.88;;;7.57;;
1446;SDS011;717;51.522;7.266;2024-02-21T03:06:15;13.27;;;7.03;;
1446;SDS011;717;51.522;7.266;2024-02-21T03:08:47;14.07;;;8.15;;
1446;SDS011;717;51.522;7.266;2024-02-21T03:11:21;13.35;;;8.32;;
1446;SDS011;717;51.522;7.266;2024-02-21T03:13:56;15.60;;;7.88;;
1446;SDS011;717;51.522;7.266;2024-02-21T03:16:27;15.18;;;8.77;;
1446;SDS011;717;51.522;7.266;2024-02-21T03:18:57;13.23;;;7.45;;
1446;SDS011;717;51.522;7.266;2024-02-21T03:21:27;15.63;;;8.43;;
1446;SDS011;717;51.522;7.266;2024-02-21T03:24:00;16.98;;;7.10;;
1446;SDS011;717;51.522;7.266;2024-02-21T03:26:30;12.10;;;7.07;;
1446;SDS011;717;51.522;7.266;2024-02-21T03:29:00;17.05;;;7.60;;
1446;SDS011;717;51.522;7.266;2024-02-21T03:31:31;15.05;;;7.88;;
1446;SDS011;717;51.522;7.266;2024-02-21T03:34:01;11.38;;;6.78;;
1446;SDS011;717;51.522;7.266;2024-02-21T03:36:32;13.25;;;7.15;;
1446;SDS011;717;51.522;7.266;2024-02-21T03:39:05;17.10;;;7.13;;
1446;SDS011;717;51.522;7.266;2024-02-21T03:41:35;11.63;;;6.65;;
1446;SDS011;717;51.522;7.266;2024-02-21T03:44:06;16.23;;;7.65;;
1446;SDS011;717;51.522;7.266;2024-02-21T03:46:36;15.27;;;7.25;;
1446;SDS011;717;51.522;7.266;2024-02-21T03:49:06;13.25;;;7.03;;
1446;SDS011;717;51.522;7.266;2024-02-21T03:51:36;15.93;;;7.35;;
1446;SDS011;717;51.522;7.266;2024-02-21T03:54:09;12.35;;;7.43;;
1446;SDS011;717;51.522;7.266;2024-02-21T03:56:39;13.75;;;7.32;;
1446;SDS011;717;51.522;7.266;2024-02-21T03:59:10;12.93;;;7.07;;
1446;SDS011;717;51.522;7.266;2024-02-21T04:01:40;13.75;;;7.22;;
1446;SDS011;717;51.522;7.266;2024-02-21T04:04:10;14.93;;;7.60;;
1446;SDS011;717;51.522;7.266;2024-02-21T04:06:45;11.48;;;7.13;;
1446;SDS011;717;51.522;7.266;2024-02-21T04:09:19;12.55;;;6.20;;
1446;SDS011;717;51.522;7.266;2024-02-21T04:11:49;13.98;;;6.93;;
1446;SDS011;717;51.522;7.266;2024-02-21T04:14:19;11.95;;;7.45;;
1446;SDS011;717;51.522;7.266;2024-02-21T04:16:49;12.60;;;7.43;;
1446;SDS011;717;51.522;7.266;2024-02-21T04:19:20;11.55;;;7.80;;
1446;SDS011;717;51.522;7.266;2024-02-21T04:21:50;12.68;;;6.82;;
1446;SDS011;717;51.522;7.266;2024-02-21T04:24:22;11.68;;;7.38;;
1446;SDS011;717;51.522;7.266;2024-02-21T04:26:53;8.52;;;6.32;;
1446;SDS011;717;51.522;7.266;2024-02-21T04:29:23;12.65;;;7.47;;
1446;SDS011;717;51.522;7.266;2024-02-21T04:31:54;14.95;;;7.10;;
1446;SDS011;717;51.522;7.266;2024-02-21T04:34:24;10.85;;;6.63;;
1446;SDS011;717;51.522;7.266;2024-02-21T04:36:55;16.05;;;6.80;;
1446;SDS011;717;51.522;7.266;2024-02-21T04:39:27;9.98;;;6.55;;
1446;SDS011;717;51.522;7.266;2024-02-21T04:41:58;13.75;;;6.65;;
1446;SDS011;717;51.522;7.266;2024-02-21T04:44:28;13.18;;;6.32;;
1446;SDS011;717;51.522;7.266;2024-02-21T04:46:58;10.82;;;6.75;;
1446;SDS011;717;51.522;7.266;2024-02-21T04:49:30;10.18;;;7.10;;
1446;SDS011;717;51.522;7.266;2024-02-21T04:52:00;12.15;;;6.28;;
1446;SDS011;717;51.522;7.266;2024-02-21T04:54:34;10.57;;;5.90;;
1446;SDS011;717;51.522;7.266;2024-02-21T04:57:04;8.88;;;6.05;;
1446;SDS011;717;51.522;7.266;2024-02-21T04:59:37;10.55;;;6.15;;
1446;SDS011;717;51.522;7.266;2024-02-21T05:02:08;10.68;;;5.70;;
1446;SDS011;717;51.522;7.266;2024-02-21T05:04:41;10.07;;;5.55;;
1446;SDS011;717;51.522;7.266;2024-02-21T05:07:12;8.35;;;5.25;;
1446;SDS011;717;51.522;7.266;2024-02-21T05:09:45;10.00;;;5.47;;
1446;SDS011;717;51.522;7.266;2024-02-21T05:12:15;10.32;;;5.25;;
1446;SDS011;717;51.522;7.266;2024-02-21T05:14:47;9.70;;;5.30;;
1446;SDS011;717;51.522;7.266;2024-02-21T05:17:17;10.32;;;5.55;;
1446;SDS011;717;51.522;7.266;2024-02-21T05:19:48;8.30;;;5.07;;
1446;SDS011;717;51.522;7.266;2024-02-21T05:22:18;8.25;;;4.97;;
1446;SDS011;717;51.522;7.266;2024-02-21T05:24:51;8.25;;;4.50;;
1446;SDS011;717;51.522;7.266;2024-02-21T05:27:21;10.55;;;5.03;;
1446;SDS011;717;51.522;7.266;2024-02-21T05:29:51;9.15;;;4.95;;
1446;SDS011;717;51.522;7.266;2024-02-21T05:32:22;8.15;;;5.22;;
1446;SDS011;717;51.522;7.266;2024-02-21T05:34:52;12.68;;;5.70;;
1446;SDS011;717;51.522;7.266;2024-02-21T05:37:24;11.10;;;6.10;;
1446;SDS011;717;51.522;7.266;2024-02-21T05:39:57;9.15;;;5.22;;
1446;SDS011;717;51.522;7.266;2024-02-21T05:42:27;8.35;;;5.10;;
1446;SDS011;717;51.522;7.266;2024-02-21T05:44:57;10.43;;;5.03;;
1446;SDS011;717;51.522;7.266;2024-02-21T05:47:27;9.82;;;5.90;;
1446;SDS011;717;51.522;7.266;2024-02-21T05:49:57;7.90;;;5.00;;
1446;SDS011;717;51.522;7.266;2024-02-21T05:52:27;7.18;;;4.75;;
1446;SDS011;717;51.522;7.266;2024-02-21T05:55:00;9.60;;;4.68;;
1446;SDS011;717;51.522;7.266;2024-02-21T05:57:30;7.85;;;5.15;;
1446;SDS011;717;51.522;7.266;2024-02-21T06:00:02;7.53;;;4.60;;
1446;SDS011;717;51.522;7.266;2024-02-21T06:02:40;8.38;;;4.22;;
1446;SDS011;717;51.522;7.266;2024-02-21T06:05:10;8.15;;;4.45;;
1446;SDS011;717;51.522;7.266;2024-02-21T06:07:40;9.73;;;4.13;;
1446;SDS011;717;51.522;7.266;2024-02-21T06:10:13;10.32;;;4.57;;
1446;SDS011;717;51.522;7.266;2024-02-21T06:12:44;7.35;;;4.22;;
1446;SDS011;717;51.522;7.266;2024-02-21T06:15:14;8.20;;;4.55;;
1446;SDS011;717;51.522;7.266;2024-02-21T06:17:44;8.68;;;4.18;;
1446;SDS011;717;51.522;7.266;2024-02-21T06:20:15;9.85;;;4.18;;
1446;SDS011;717;51.522;7.266;2024-02-21T06:22:46;7.60;;;3.67;;
1446;SDS011;717;51.522;7.266;2024-02-21T06:25:19;10.10;;;4.40;;
1446;SDS011;717;51.522;7.266;2024-02-21T06:27:49;6.22;;;3.70;;
1446;SDS011;717;51.522;7.266;2024-02-21T06:30:19;8.90;;;3.33;;
1446;SDS011;717;51.522;7.266;2024-02-21T06:32:49;7.50;;;3.60;;
1446;SDS011;717;51.522;7.266;2024-02-21T06:35:22;6.35;;;3.03;;
1446;SDS011;717;51.522;7.266;2024-02-21T06:37:53;7.10;;;3.97;;
1446;SDS011;717;51.522;7.266;2024-02-21T06:40:26;6.03;;;3.72;;
1446;SDS011;717;51.522;7.266;2024-02-21T06:42:58;10.20;;;4.07;;
1446;SDS011;717;51.522;7.266;2024-02-21T06:45:28;8.10;;;3.50;;
1446;SDS011;717;51.522;7.266;2024-02-21T06:47:58;9.20;;;4.10;;
1446;SDS011;717;51.522;7.266;2024-02-21T06:50:28;6.60;;;3.72;;
1446;SDS011;717;51.522;7.266;2024-02-21T06:52:59;8.43;;;3.80;;
1446;SDS011;717;51.522;7.266;2024-02-21T06:55:32;4.78;;;3.33;;
1446;SDS011;717;51.522;7.266;2024-02-21T06:58:02;8.60;;;3.50;;
1446;SDS011;717;51.522;7.266;2024-02-21T07:00:35;6.85;;;3.50;;
1446;SDS011;717;51.522;7.266;2024-02-21T07:03:05;4.88;;;3.35;;
1446;SDS011;717;51.522;7.266;2024-02-21T07:05:37;5.88;;;3.10;;
1446;SDS011;717;51.522;7.266;2024-02-21T07:08:07;7.63;;;3.35;;
1446;SDS011;717;51.522;7.266;2024-02-21T07:10:40;11.38;;;3.95;;
1446;SDS011;717;51.522;7.266;2024-02-21T07:13:10;6.38;;;3.53;;
1446;SDS011;717;51.522;7.266;2024-02-21T07:15:42;8.98;;;4.32;;
1446;SDS011;717;51.522;7.266;2024-02-21T07:18:12;7.00;;;3.45;;
1446;SDS011;717;51.522;7.266;2024-02-21T07:20:43;5.93;;;3.55;;
1446;SDS011;717;51.522;7.266;2024-02-21T07:23:13;7.72;;;3.45;;
1446;SDS011;717;51.522;7.266;2024-02-21T07:25:46;6.28;;;3.45;;
1446;SDS011;717;51.522;7.266;2024-02-21T07:28:16;8.65;;;3.95;;
1446;SDS011;717;51.522;7.266;2024-02-21T07:30:44;8.25;;;3.85;;
1446;SDS011;717;51.522;7.266;2024-02-21T07:33:15;8.07;;;3.80;;
1446;SDS011;717;51.522;7.266;2024-02-21T07:35:46;6.88;;;3.80;;
1446;SDS011;717;51.522;7.266;2024-02-21T07:38:17;8.25;;;3.88;;
1446;SDS011;717;51.522;7.266;2024-02-21T07:40:51;8.07;;;3.95;;
1446;SDS011;717;51.522;7.266;2024-02-21T07:43:22;7.22;;;4.50;;
1446;SDS011;717;51.522;7.266;2024-02-21T07:45:53;7.03;;;3.78;;
1446;SDS011;717;51.522;7.266;2024-02-21T07:48:23;8.23;;;4.10;;
1446;SDS011;717;51.522;7.266;2024-02-21T07:50:54;8.52;;;3.88;;
1446;SDS011;717;51.522;7.266;2024-02-21T07:53:25;7.38;;;4.03;;
1446;SDS011;717;51.522;7.266;2024-02-21T07:55:57;6.55;;;3.53;;
1446;SDS011;717;51.522;7.266;2024-02-21T07:58:28;7.35;;;4.20;;
1446;SDS011;717;51.522;7.266;2024-02-21T08:00:58;6.22;;;4.15;;
1446;SDS011;717;51.522;7.266;2024-02-21T08:03:29;6.72;;;4.05;;
1446;SDS011;717;51.522;7.266;2024-02-21T08:05:59;7.30;;;4.25;;
1446;SDS011;717;51.522;7.266;2024-02-21T08:08:29;6.30;;;3.72;;
1446;SDS011;717;51.522;7.266;2024-02-21T08:11:03;7.72;;;4.13;;
1446;SDS011;717;51.522;7.266;2024-02-21T08:13:33;6.63;;;4.07;;
1446;SDS011;717;51.522;7.266;2024-02-21T08:16:04;7.82;;;4.20;;
1446;SDS011;717;51.522;7.266;2024-02-21T08:18:34;8.07;;;3.97;;
1446;SDS011;717;51.522;7.266;2024-02-21T08:21:05;7.65;;;3.83;;
1446;SDS011;717;51.522;7.266;2024-02-21T08:23:36;8.32;;;4.20;;
1446;SDS011;717;51.522;7.266;2024-02-21T08:26:09;8.18;;;3.60;;
1446;SDS011;717;51.522;7.266;2024-02-21T08:28:39;5.55;;;3.30;;
1446;SDS011;717;51.522;7.266;2024-02-21T08:31:09;5.60;;;3.28;;
1446;SDS011;717;51.522;7.266;2024-02-21T08:33:40;5.47;;;2.78;;
1446;SDS011;717;51.522;7.266;2024-02-21T08:36:16;6.88;;;3.80;;
1446;SDS011;717;51.522;7.266;2024-02-21T08:38:47;8.00;;;3.45;;
1446;SDS011;717;51.522;7.266;2024-02-21T08:41:20;4.85;;;3.10;;
1446;SDS011;717;51.522;7.266;2024-02-21T08:44:08;5.88;;;3.13;;
1446;SDS011;717;51.522;7.266;2024-02-21T08:46:38;4.93;;;3.17;;
1446;SDS011;717;51.522;7.266;2024-02-21T08:49:09;5.60;;;2.85;;
1446;SDS011;717;51.522;7.266;2024-02-21T08:51:40;7.03;;;3.00;;
1446;SDS011;717;51.522;7.266;2024-02-21T08:54:11;4.88;;;2.90;;
1446;SDS011;717;51.522;7.266;2024-02-21T08:56:43;5.95;;;2.67;;
1446;SDS011;717;51.522;7.266;2024-02-21T08:59:14;5.25;;;2.58;;
1446;SDS011;717;51.522;7.266;2024-02-21T09:01:44;5.13;;;3.05;;
1446;SDS011;717;51.522;7.266;2024-02-21T09:04:15;4.95;;;2.58;;
1446;SDS011;717;51.522;7.266;2024-02-21T09:06:45;6.38;;;2.88;;
1446;SDS011;717;51.522;7.266;2024-02-21T09:09:15;7.05;;;3.42;;
1446;SDS011;717;51.522;7.266;2024-02-21T09:11:49;8.13;;;3.00;;
1446;SDS011;717;51.522;7.266;2024-02-21T09:14:19;5.68;;;2.97;;
1446;SDS011;717;51.522;7.266;2024-02-21T09:16:50;6.45;;;3.17;;
1446;SDS011;717;51.522;7.266;2024-02-21T09:19:20;5.82;;;3.15;;
1446;SDS011;717;51.522;7.266;2024-02-21T09:21:51;7.97;;;3.95;;
1446;SDS011;717;51.522;7.266;2024-02-21T09:24:21;7.03;;;3.30;;
1446;SDS011;717;51.522;7.266;2024-02-21T09:26:54;7.85;;;3.35;;
1446;SDS011;717;51.522;7.266;2024-02-21T09:29:24;6.20;;;3.47;;
1446;SDS011;717;51.522;7.266;2024-02-21T09:31:54;6.15;;;3.50;;
1446;SDS011;717;51.522;7.266;2024-02-21T09:34:24;7.30;;;2.92;;
1446;SDS011;717;51.522;7.266;2024-02-21T09:36:55;8.98;;;3.47;;
1446;SDS011;717;51.522;7.266;2024-02-21T09:39:25;8.65;;;3.97;;
1446;SDS011;717;51.522;7.266;2024-02-21T09:41:58;8.60;;;3.60;;
1446;SDS011;717;51.522;7.266;2024-02-21T09:44:33;9.80;;;3.80;;
1446;SDS011;717;51.522;7.266;2024-02-21T09:47:07;9.18;;;4.15;;
1446;SDS011;717;51.522;7.266;2024-02-21T09:49:42;7.18;;;3.75;;
1446;SDS011;717;51.522;7.266;2024-02-21T09:52:13;11.07;;;4.18;;
1446;SDS011;717;51.522;7.266;2024-02-21T09:54:45;10.80;;;4.20;;
1446;SDS011;717;51.522;7.266;2024-02-21T09:57:21;8.40;;;4.60;;
1446;SDS011;717;51.522;7.266;2024-02-21T09:59:52;10.95;;;4.45;;
1446;SDS011;717;51.522;7.266;2024-02-21T10:02:22;11.60;;;4.40;;
1446;SDS011;717;51.522;7.266;2024-02-21T10:04:53;11.05;;;4.55;;
1446;SDS011;717;51.522;7.266;2024-02-21T10:07:23;10.38;;;4.40;;
1446;SDS011;717;51.522;7.266;2024-02-21T10:10:00;7.32;;;3.80;;
1446;SDS011;717;51.522;7.266;2024-02-21T10:12:33;9.65;;;4.68;;
1446;SDS011;717;51.522;7.266;2024-02-21T10:15:05;11.65;;;4.80;;
1446;SDS011;717;51.522;7.266;2024-02-21T10:17:36;6.80;;;4.57;;
1446;SDS011;717;51.522;7.266;2024-02-21T10:20:07;11.65;;;4.97;;
1446;SDS011;717;51.522;7.266;2024-02-21T10:22:38;8.43;;;5.00;;
1446;SDS011;717;51.522;7.266;2024-02-21T10:25:09;8.35;;;4.57;;
1446;SDS011;717;51.522;7.266;2024-02-21T10:27:42;10.85;;;4.90;;
1446;SDS011;717;51.522;7.266;2024-02-21T10:30:13;12.48;;;5.75;;
1446;SDS011;717;51.522;7.266;2024-02-21T10:32:50;9.00;;;4.65;;
1446;SDS011;717;51.522;7.266;2024-02-21T10:35:25;12.05;;;6.45;;
1446;SDS011;717;51.522;7.266;2024-02-21T10:37:57;8.68;;;5.70;;
1446;SDS011;717;51.522;7.266;2024-02-21T10:40:30;11.60;;;5.78;;
1446;SDS011;717;51.522;7.266;2024-02-21T10:43:03;9.52;;;6.10;;
1446;SDS011;717;51.522;7.266;2024-02-21T10:45:39;10.95;;;6.43;;
1446;SDS011;717;51.522;7.266;2024-02-21T10:48:11;9.35;;;4.85;;
1446;SDS011;717;51.522;7.266;2024-02-21T10:50:53;6.28;;;4.07;;
1446;SDS011;717;51.522;7.266;2024-02-21T10:53:29;7.55;;;4.68;;
1446;SDS011;717;51.522;7.266;2024-02-21T10:56:11;8.07;;;3.72;;
1446;SDS011;717;51.522;7.266;2024-02-21T10:58:51;5.65;;;3.53;;
1446;SDS011;717;51.522;7.266;2024-02-21T11:01:23;3.88;;;2.92;;
1446;SDS011;717;51.522;7.266;2024-02-21T11:03:55;4.22;;;3.08;;
1446;SDS011;717;51.522;7.266;2024-02-21T11:06:29;3.70;;;3.10;;
1446;SDS011;717;51.522;7.266;2024-02-21T11:09:01;7.53;;;3.42;;
1446;SDS011;717;51.522;7.266;2024-02-21T11:11:33;5.50;;;3.00;;
1446;SDS011;717;51.522;7.266;2024-02-21T11:14:10;5.95;;;3.50;;
1446;SDS011;717;51.522;7.266;2024-02-21T11:16:41;6.15;;;3.25;;
1446;SDS011;717;51.522;7.266;2024-02-21T11:19:18;5.32;;;3.13;;
1446;SDS011;717;51.522;7.266;2024-02-21T11:21:52;5.05;;;3.22;;
1446;SDS011;717;51.522;7.266;2024-02-21T11:24:27;4.88;;;3.58;;
1446;SDS011;717;51.522;7.266;2024-02-21T11:27:08;4.25;;;2.83;;
1446;SDS011;717;51.522;7.266;2024-02-21T11:29:43;4.22;;;3.42;;
1446;SDS011;717;51.522;7.266;2024-02-21T11:32:14;5.57;;;3.72;;
1446;SDS011;717;51.522;7.266;2024-02-21T11:34:55;5.60;;;4.13;;
1446;SDS011;717;51.522;7.266;2024-02-21T11:37:30;4.68;;;3.30;;
1446;SDS011;717;51.522;7.266;2024-02-21T11:40:05;6.53;;;3.78;;
1446;SDS011;717;51.522;7.266;2024-02-21T11:42:38;6.78;;;3.67;;
1446;SDS011;717;51.522;7.266;2024-02-21T11:45:11;5.47;;;3.42;;
1446;SDS011;717;51.522;7.266;2024-02-21T11:47:47;7.13;;;3.70;;
1446;SDS011;717;51.522;7.266;2024-02-21T11:50:18;6.13;;;3.92;;
1446;SDS011;717;51.522;7.266;2024-02-21T11:52:51;5.18;;;3.30;;
1446;SDS011;717;51.522;7.266;2024-02-21T11:55:30;7.95;;;3.53;;
1446;SDS011;717;51.522;7.266;2024-02-21T11:58:01;6.22;;;3.40;;
1446;SDS011;717;51.522;7.266;2024-02-21T12:00:35;7.28;;;3.10;;
1446;SDS011;717;51.522;7.266;2024-02-21T12:03:06;3.50;;;3.20;;
1446;SDS011;717;51.522;7.266;2024-02-21T12:05:37;6.15;;;3.70;;
1446;SDS011;717;51.522;7.266;2024-02-21T12:08:07;5.97;;;3.10;;
1446;SDS011;717;51.522;7.266;2024-02-21T12:10:38;5.80;;;3.72;;
1446;SDS011;717;51.522;7.266;2024-02-21T12:13:08;4.25;;;2.88;;
1446;SDS011;717;51.522;7.266;2024-02-21T12:15:41;5.00;;;2.97;;
1446;SDS011;717;51.522;7.266;2024-02-21T12:18:18;4.90;;;3.25;;
1446;SDS011;717;51.522;7.266;2024-02-21T12:20:49;5.20;;;2.85;;
1446;SDS011;717;51.522;7.266;2024-02-21T12:23:19;6.00;;;2.53;;
1446;SDS011;717;51.522;7.266;2024-02-21T12:25:50;7.00;;;3.15;;
1446;SDS011;717;51.522;7.266;2024-02-21T12:28:21;4.60;;;2.85;;
1446;SDS011;717;51.522;7.266;2024-02-21T12:30:54;5.68;;;2.55;;
1446;SDS011;717;51.522;7.266;2024-02-21T12:33:24;4.82;;;2.83;;
1446;SDS011;717;51.522;7.266;2024-02-21T12:35:55;5.40;;;2.80;;
1446;SDS011;717;51.522;7.266;2024-02-21T12:38:25;4.78;;;2.22;;
1446;SDS011;717;51.522;7.266;2024-02-21T12:40:55;5.20;;;2.13;;
1446;SDS011;717;51.522;7.266;2024-02-21T12:43:27;6.00;;;2.28;;
1446;SDS011;717;51.522;7.266;2024-02-21T12:46:00;5.97;;;2.83;;
1446;SDS011;717;51.522;7.266;2024-02-21T12:48:31;5.30;;;2.00;;
1446;SDS011;717;51.522;7.266;2024-02-21T12:51:01;5.25;;;2.13;;
1446;SDS011;717;51.522;7.266;2024-02-21T12:53:31;4.43;;;1.90;;
1446;SDS011;717;51.522;7.266;2024-02-21T12:56:02;4.90;;;1.95;;
1446;SDS011;717;51.522;7.266;2024-02-21T12:58:34;3.78;;;2.08;;
1446;SDS011;717;51.522;7.266;2024-02-21T13:01:07;3.97;;;1.58;;
1446;SDS011;717;51.522;7.266;2024-02-21T13:03:37;3.55;;;1.88;;
1446;SDS011;717;51.522;7.266;2024-02-21T13:06:07;4.18;;;2.00;;
1446;SDS011;717;51.522;7.266;2024-02-21T13:08:38;4.97;;;2.10;;
1446;SDS011;717;51.522;7.266;2024-02-21T13:11:08;6.90;;;2.45;;
1446;SDS011;717;51.522;7.266;2024-02-21T13:13:39;4.55;;;2.10;;
1446;SDS011;717;51.522;7.266;2024-02-21T13:16:12;4.10;;;2.20;;
1446;SDS011;717;51.522;7.266;2024-02-21T13:18:42;3.13;;;1.77;;
1446;SDS011;717;51.522;7.266;2024-02-21T13:21:14;4.68;;;2.15;;
1446;SDS011;717;51.522;7.266;2024-02-21T13:23:45;4.85;;;1.77;;
1446;SDS011;717;51.522;7.266;2024-02-21T13:26:15;4.93;;;2.15;;
1446;SDS011;717;51.522;7.266;2024-02-21T13:28:46;5.75;;;1.90;;
1446;SDS011;717;51.522;7.266;2024-02-21T13:31:19;3.53;;;1.80;;
1446;SDS011;717;51.522;7.266;2024-02-21T13:33:52;5.82;;;1.85;;
1446;SDS011;717;51.522;7.266;2024-02-21T13:36:22;4.10;;;2.25;;
1446;SDS011;717;51.522;7.266;2024-02-21T13:38:53;5.93;;;2.17;;
1446;SDS011;717;51.522;7.266;2024-02-21T13:41:23;5.85;;;1.88;;
1446;SDS011;717;51.522;7.266;2024-02-21T13:43:53;5.07;;;1.95;;
1446;SDS011;717;51.522;7.266;2024-02-21T13:46:26;9.82;;;2.40;;
1446;SDS011;717;51.522;7.266;2024-02-21T13:49:02;3.92;;;1.77;;
1446;SDS011;717;51.522;7.266;2024-02-21T13:51:34;6.72;;;2.17;;
1446;SDS011;717;51.522;7.266;2024-02-21T13:54:07;5.28;;;2.20;;
1446;SDS011;717;51.522;7.266;2024-02-21T13:56:38;6.40;;;1.80;;
1446;SDS011;717;51.522;7.266;2024-02-21T13:59:08;5.85;;;2.00;;
1446;SDS011;717;51.522;7.266;2024-02-21T14:01:41;2.80;;;1.42;;
1446;SDS011;717;51.522;7.266;2024-02-21T14:04:11;5.47;;;1.90;;
1446;SDS011;717;51.522;7.266;2024-02-21T14:06:42;6.65;;;1.98;;
1446;SDS011;717;51.522;7.266;2024-02-21T14:09:12;5.60;;;1.98;;
1446;SDS011;717;51.522;7.266;2024-02-21T14:11:43;5.47;;;1.58;;
1446;SDS011;717;51.522;7.266;2024-02-21T14:14:13;4.90;;;1.98;;
1446;SDS011;717;51.522;7.266;2024-02-21T14:16:47;5.15;;;2.00;;
1446;SDS011;717;51.522;7.266;2024-02-21T14:19:17;5.57;;;1.75;;
1446;SDS011;717;51.522;7.266;2024-02-21T14:21:48;4.18;;;1.80;;
1446;SDS011;717;51.522;7.266;2024-02-21T14:24:19;3.53;;;1.80;;
1446;SDS011;717;51.522;7.266;2024-02-21T14:26:49;3.83;;;1.80;;
1446;SDS011;717;51.522;7.266;2024-02-21T14:29:19;4.05;;;1.77;;
1446;SDS011;717;51.522;7.266;2024-02-21T14:31:53;5.80;;;2.03;;
1446;SDS011;717;51.522;7.266;2024-02-21T14:34:23;4.35;;;1.77;;
1446;SDS011;717;51.522;7.266;2024-02-21T14:36:54;7.38;;;1.70;;
1446;SDS011;717;51.522;7.266;2024-02-21T14:39:24;5.25;;;2.05;;
1446;SDS011;717;51.522;7.266;2024-02-21T14:41:54;5.82;;;2.15;;
1446;SDS011;717;51.522;7.266;2024-02-21T14:44:26;5.05;;;1.63;;
1446;SDS011;717;51.522;7.266;2024-02-21T14:46:59;5.70;;;2.35;;
1446;SDS011;717;51.522;7.266;2024-02-21T14:49:30;3.67;;;1.65;;
1446;SDS011;717;51.522;7.266;2024-02-21T14:52:01;5.45;;;1.90;;
1446;SDS011;717;51.522;7.266;2024-02-21T14:54:31;4.60;;;1.58;;
1446;SDS011;717;51.522;7.266;2024-02-21T14:57:02;2.88;;;1.75;;
1446;SDS011;717;51.522;7.266;2024-02-21T14:59:33;3.80;;;1.75;;
1446;SDS011;717;51.522;7.266;2024-02-21T15:02:05;4.40;;;1.77;;
1446;SDS011;717;51.522;7.266;2024-02-21T15:04:36;4.25;;;1.60;;
1446;SDS011;717;51.522;7.266;2024-02-21T15:07:07;4.20;;;1.83;;
1446;SDS011;717;51.522;7.266;2024-02-21T15:09:37;4.50;;;1.67;;
1446;SDS011;717;51.522;7.266;2024-02-21T15:12:07;3.95;;;1.75;;
1446;SDS011;717;51.522;7.266;2024-02-21T15:14:37;5.18;;;1.65;;
1446;SDS011;717;51.522;7.266;2024-02-21T15:17:10;4.50;;;1.77;;
1446;SDS011;717;51.522;7.266;2024-02-21T15:19:40;4.22;;;1.73;;
1446;SDS011;717;51.522;7.266;2024-02-21T15:22:23;5.22;;;1.60;;
1446;SDS011;717;51.522;7.266;2024-02-21T15:24:53;4.82;;;1.70;;
1446;SDS011;717;51.522;7.266;2024-02-21T15:27:24;4.60;;;1.88;;
1446;SDS011;717;51.522;7.266;2024-02-21T15:30:06;3.97;;;1.80;;
1446;SDS011;717;51.522;7.266;2024-02-21T15:32:40;4.10;;;2.00;;
1446;SDS011;717;51.522;7.266;2024-02-21T15:35:12;3.92;;;1.85;;
1446;SDS011;717;51.522;7.266;2024-02-21T15:37:42;2.97;;;1.50;;
1446;SDS011;717;51.522;7.266;2024-02-21T15:40:13;6.63;;;1.90;;
1446;SDS011;717;51.522;7.266;2024-02-21T15:42:44;4.70;;;1.70;;
1446;SDS011;717;51.522;7.266;2024-02-21T15:45:15;5.05;;;1.98;;
1446;SDS011;717;51.522;7.266;2024-02-21T15:47:48;3.85;;;1.58;;
1446;SDS011;717;51.522;7.266;2024-02-21T15:50:21;3.05;;;1.70;;
1446;SDS011;717;51.522;7.266;2024-02-21T15:53:08;3.63;;;1.50;;